Time;durP1;ratioP1;P1;durP2;ratioP2;P2;SDS_P1;SDS_P2;PMS_P1;PMS_P2;Temp;Humidity;BMP_temperature;BMP_pressure;BME280_temperature;BME280_humidity;BME280_pressure;Samples;Min_cycle;Max_cycle;Signal;HPM_P1;HPM_P2
2022/04/16 00:01:06;;;;;;;;;;;;;;;15.25;52.46;99829.25;4479457;31;33941;-68
2022/04/16 00:03:35;;;;;;;;;;;;;;;14.99;52.78;99826.25;4486045;31;34616;-68
2022/04/16 00:06:03;;;;;;;;;;;;;;;15.06;53.00;99821.16;4485679;31;32511;-70
2022/04/16 00:08:31;;;;;;;;;;;;;;;14.69;53.84;99816.41;4487273;31;34211;-69
2022/04/16 00:11:00;;;;;;;;;;;;;;;14.69;53.93;99813.72;4473173;31;33879;-68
2022/04/16 00:13:32;;;;;;;;;;;;;;;14.93;53.10;99799.88;4488439;31;32744;-69
2022/04/16 00:16:02;;;;;;;;;;;;;;;14.96;52.93;99804.09;4497776;31;33496;-69
2022/04/16 00:18:29;;;;;;;;;;;;;;;14.77;53.51;99810.34;4482744;32;33063;-68
2022/04/16 00:20:58;;;;;;;;;;;;;;;14.54;54.45;99804.34;4471171;31;33350;-67
2022/04/16 00:23:26;;;;;;;;;;;;;;;13.91;56.25;99810.75;4496623;31;34671;-69
2022/04/16 00:25:58;;;;;;;;;;;;;;;13.76;57.24;99795.94;4488720;31;33627;-67
2022/04/16 00:28:27;;;;;;;;;;;;;;;13.56;57.40;99803.06;4493276;31;33746;-68
2022/04/16 00:30:56;;;;;;;;;;;;;;;13.81;56.67;99803.63;4489999;31;33471;-68
2022/04/16 00:33:26;;;;;;;;;;;;;;;13.89;56.25;99806.50;4493585;31;35097;-68
2022/04/16 00:35:58;;;;;;;;;;;;;;;13.27;57.89;99816.31;4485194;31;33320;-70
2022/04/16 00:38:28;;;;;;;;;;;;;;;13.90;55.85;99811.75;4485615;31;34527;-67
2022/04/16 00:41:00;;;;;;;;;;;;;;;13.70;56.49;99810.78;4487135;31;33546;-66
2022/04/16 00:43:29;;;;;;;;;;;;;;;13.91;55.29;99805.38;4487563;31;34066;-66
2022/04/16 00:45:59;;;;;;;;;;;;;;;14.13;54.48;99795.41;4483696;31;33224;-66
2022/04/16 00:48:29;;;;;;;;;;;;;;;13.85;55.18;99797.00;4484048;31;34303;-67
2022/04/16 00:50:59;;;;;;;;;;;;;;;13.55;55.48;99787.94;4483927;31;33969;-67
2022/04/16 00:53:28;;;;;;;;;;;;;;;13.46;55.36;99788.72;4489936;31;32802;-69
2022/04/16 00:55:58;;;;;;;;;;;;;;;13.64;54.84;99788.94;4498782;31;34529;-67
2022/04/16 00:58:27;;;;;;;;;;;;;;;13.73;54.06;99789.00;4483474;31;35139;-69
2022/04/16 01:00:56;;;;;;;;;;;;;;;13.54;54.19;99780.81;4471377;31;33526;-70
2022/04/16 01:03:26;;;;;;;;;;;;;;;13.31;55.34;99776.59;4487453;31;33953;-69
2022/04/16 01:05:58;;;;;;;;;;;;;;;13.46;54.84;99777.97;4493432;31;34303;-67
2022/04/16 01:08:27;;;;;;;;;;;;;;;13.56;54.21;99772.63;4485359;31;32959;-68
2022/04/16 01:10:56;;;;;;;;;;;;;;;13.47;54.11;99772.44;4489150;31;33193;-69
2022/04/16 01:13:25;;;;;;;;;;;;;;;13.58;53.60;99766.16;4487432;31;33194;-69
2022/04/16 01:15:54;;;;;;;;;;;;;;;13.53;53.67;99768.38;4489953;31;32274;-69
2022/04/16 01:18:25;;;;;;;;;;;;;;;13.24;54.27;99763.66;4487183;31;34254;-68
2022/04/16 01:20:54;;;;;;;;;;;;;;;13.42;53.65;99765.78;4486189;31;35444;-66
2022/04/16 01:23:22;;;;;;;;;;;;;;;12.74;55.16;99770.59;4487262;31;33153;-69
2022/04/16 01:25:52;;;;;;;;;;;;;;;12.67;56.04;99769.41;4490558;31;33527;-68
2022/04/16 01:28:20;;;;;;;;;;;;;;;12.96;55.69;99767.81;4491672;31;34243;-68
2022/04/16 01:30:49;;;;;;;;;;;;;;;12.66;55.91;99762.34;4487669;31;33417;-67
2022/04/16 01:33:20;;;;;;;;;;;;;;;12.39;56.72;99754.72;4489331;31;34644;-68
2022/04/16 01:35:53;;;;;;;;;;;;;;;12.63;56.04;99758.06;4487475;31;32876;-68
2022/04/16 01:38:25;;;;;;;;;;;;;;;11.92;58.37;99751.41;4488640;31;32659;-66
2022/04/16 01:40:57;;;;;;;;;;;;;;;12.35;57.17;99756.81;4484280;31;33274;-67
2022/04/16 01:43:26;;;;;;;;;;;;;;;11.75;58.82;99752.69;4491797;31;33120;-67
2022/04/16 01:45:56;;;;;;;;;;;;;;;11.72;59.24;99764.53;4494214;31;33550;-68
2022/04/16 01:48:28;;;;;;;;;;;;;;;11.35;60.32;99764.72;4474557;32;32849;-69
2022/04/16 01:50:58;;;;;;;;;;;;;;;11.91;58.74;99772.00;4483250;32;35551;-69
2022/04/16 01:53:29;;;;;;;;;;;;;;;11.27;61.03;99774.31;4496438;31;32872;-66
2022/04/16 01:55:59;;;;;;;;;;;;;;;11.54;59.78;99779.37;4484543;31;32219;-68
2022/04/16 01:58:31;;;;;;;;;;;;;;;11.84;58.97;99768.94;4487252;31;32906;-67
2022/04/16 02:01:03;;;;;;;;;;;;;;;11.30;60.74;99777.63;4481021;31;34270;-67
2022/04/16 02:03:33;;;;;;;;;;;;;;;11.85;59.18;99785.91;4489994;31;33257;-67
2022/04/16 02:06:01;;;;;;;;;;;;;;;12.09;58.07;99794.66;4496542;31;33273;-69
2022/04/16 02:08:30;;;;;;;;;;;;;;;12.63;56.47;99795.66;4484272;31;33183;-69
2022/04/16 02:11:00;;;;;;;;;;;;;;;12.98;55.69;99790.03;4492070;31;34218;-70
2022/04/16 02:13:30;;;;;;;;;;;;;;;13.26;54.87;99791.28;4483735;31;33927;-70
2022/04/16 02:16:00;;;;;;;;;;;;;;;13.68;53.40;99796.63;4494227;31;33302;-70
2022/04/16 02:18:28;;;;;;;;;;;;;;;13.30;53.89;99797.25;4486727;31;35127;-71
2022/04/16 02:20:58;;;;;;;;;;;;;;;13.86;52.72;99785.25;4480799;31;35129;-69
2022/04/16 02:23:28;;;;;;;;;;;;;;;13.90;52.46;99786.66;4487063;31;34359;-68
2022/04/16 02:25:57;;;;;;;;;;;;;;;13.89;52.73;99793.88;4480418;31;32924;-71
2022/04/16 02:28:26;;;;;;;;;;;;;;;13.84;52.27;99780.00;4490731;31;33118;-71
2022/04/16 02:30:55;;;;;;;;;;;;;;;13.97;52.29;99779.78;4490863;31;35402;-70
2022/04/16 02:33:23;;;;;;;;;;;;;;;14.59;50.09;99781.38;4488661;31;34046;-71
2022/04/16 02:35:53;;;;;;;;;;;;;;;14.07;51.85;99786.03;4488975;31;34373;-71
2022/04/16 02:38:22;;;;;;;;;;;;;;;14.51;50.57;99780.37;4473885;31;33138;-71
2022/04/16 02:40:51;;;;;;;;;;;;;;;14.72;49.67;99767.66;4491976;31;32991;-72
2022/04/16 02:43:19;;;;;;;;;;;;;;;13.84;51.93;99768.41;4470963;31;34526;-71
2022/04/16 02:48:37;;;;;;;;;;;;;;;13.87;52.36;99766.28;4484963;31;34169;-72
2022/04/16 02:51:06;;;;;;;;;;;;;;;13.16;54.04;99766.16;4491534;31;34602;-72
2022/04/16 02:53:36;;;;;;;;;;;;;;;12.81;55.24;99763.75;4486052;31;34202;-68
2022/04/16 02:56:07;;;;;;;;;;;;;;;13.02;54.47;99769.12;4497498;31;32193;-70
2022/04/16 02:58:35;;;;;;;;;;;;;;;12.64;55.64;99765.13;4492479;31;32860;-71
2022/04/16 03:01:04;;;;;;;;;;;;;;;13.21;54.24;99763.03;4489275;31;34587;-69
2022/04/16 03:03:32;;;;;;;;;;;;;;;12.89;54.96;99766.63;4487918;31;35164;-70
2022/04/16 03:06:00;;;;;;;;;;;;;;;13.14;54.14;99772.63;4484414;31;33059;-70
2022/04/16 03:08:28;;;;;;;;;;;;;;;13.23;53.92;99761.94;4486097;31;34402;-69
2022/04/16 03:10:56;;;;;;;;;;;;;;;12.89;54.82;99763.09;4481820;31;35441;-69
2022/04/16 03:13:24;;;;;;;;;;;;;;;12.96;54.81;99766.97;4485480;31;35186;-69
2022/04/16 03:18:41;;;;;;;;;;;;;;;12.55;55.74;99760.53;4489644;31;34153;-69
2022/04/16 03:21:11;;;;;;;;;;;;;;;12.23;56.23;99750.63;4490205;31;33797;-69
2022/04/16 03:23:40;;;;;;;;;;;;;;;12.40;55.98;99769.84;4487803;31;33130;-68
2022/04/16 03:26:08;;;;;;;;;;;;;;;12.29;56.49;99770.72;4482795;31;32636;-68
2022/04/16 03:28:40;;;;;;;;;;;;;;;12.53;55.06;99759.81;4484652;31;32733;-68
2022/04/16 03:31:10;;;;;;;;;;;;;;;12.58;55.31;99757.59;4481874;31;33638;-70
2022/04/16 03:33:39;;;;;;;;;;;;;;;12.93;54.19;99769.91;4486269;31;32945;-68
2022/04/16 03:36:08;;;;;;;;;;;;;;;11.77;57.58;99762.31;4482868;31;32433;-71
2022/04/16 03:38:38;;;;;;;;;;;;;;;12.32;55.89;99771.31;4490899;31;32913;-68
2022/04/16 03:41:07;;;;;;;;;;;;;;;11.87;57.44;99776.72;4496352;31;33890;-70
2022/04/16 03:43:37;;;;;;;;;;;;;;;12.08;56.96;99782.22;4490284;31;33006;-69
2022/04/16 03:46:06;;;;;;;;;;;;;;;11.79;57.56;99771.09;4489571;31;33490;-68
2022/04/16 03:48:35;;;;;;;;;;;;;;;11.43;58.64;99778.41;4494454;31;34008;-71
2022/04/16 03:51:05;;;;;;;;;;;;;;;12.08;56.85;99776.00;4493890;31;33102;-71
2022/04/16 03:53:34;;;;;;;;;;;;;;;11.96;57.11;99776.97;4483239;31;33770;-69
2022/04/16 04:01:49;;;;;;;;;;;;;;;11.62;58.66;99779.59;4483717;31;34412;-67
2022/04/16 04:04:17;;;;;;;;;;;;;;;11.57;58.28;99779.13;4495271;31;32971;-67
2022/04/16 04:06:45;;;;;;;;;;;;;;;11.52;58.49;99790.19;4484971;31;31974;-69
2022/04/16 04:09:15;;;;;;;;;;;;;;;11.96;57.23;99793.94;4493009;31;32943;-69
2022/04/16 04:11:44;;;;;;;;;;;;;;;12.53;55.48;99798.25;4487082;31;34275;-66
2022/04/16 04:14:14;;;;;;;;;;;;;;;11.91;57.35;99790.78;4484824;31;33819;-66
2022/04/16 04:16:43;;;;;;;;;;;;;;;12.12;56.88;99790.88;4492896;31;33204;-68
2022/04/16 04:19:12;;;;;;;;;;;;;;;11.36;59.16;99803.97;4485332;31;34130;-65
2022/04/16 04:21:41;;;;;;;;;;;;;;;12.18;56.34;99801.13;4487869;31;32981;-66
2022/04/16 04:24:12;;;;;;;;;;;;;;;11.55;58.73;99805.19;4486802;31;32875;-68
2022/04/16 04:26:40;;;;;;;;;;;;;;;11.95;57.87;99802.09;4494252;31;33187;-65
2022/04/16 04:29:09;;;;;;;;;;;;;;;12.02;57.66;99800.63;4485073;31;33988;-66
2022/04/16 04:31:38;;;;;;;;;;;;;;;11.77;58.14;99810.59;4474881;31;33859;-65
2022/04/16 04:34:07;;;;;;;;;;;;;;;11.96;57.52;99809.19;4484201;31;34685;-66
2022/04/16 04:36:36;;;;;;;;;;;;;;;11.82;57.78;99803.03;4473647;31;31650;-69
2022/04/16 04:39:05;;;;;;;;;;;;;;;12.08;56.94;99794.78;4493847;31;33045;-66
2022/04/16 04:41:33;;;;;;;;;;;;;;;11.61;58.91;99818.13;4489073;31;33781;-66
2022/04/16 04:44:03;;;;;;;;;;;;;;;11.29;59.65;99816.09;4491022;31;32831;-65
2022/04/16 04:46:33;;;;;;;;;;;;;;;10.93;60.80;99815.25;4485044;31;32362;-65
2022/04/16 04:49:02;;;;;;;;;;;;;;;11.26;60.73;99816.34;4490175;31;34293;-65
2022/04/16 04:51:32;;;;;;;;;;;;;;;11.50;59.00;99826.16;4481791;32;33155;-66
2022/04/16 04:54:03;;;;;;;;;;;;;;;12.12;57.40;99825.75;4482462;32;33270;-67
2022/04/16 04:56:34;;;;;;;;;;;;;;;12.39;56.33;99828.06;4481798;32;33330;-69
2022/04/16 04:59:03;;;;;;;;;;;;;;;12.45;56.17;99829.38;4483995;31;33449;-66
2022/04/16 05:01:32;;;;;;;;;;;;;;;12.25;56.52;99833.66;4483788;31;34172;-67
2022/04/16 05:04:02;;;;;;;;;;;;;;;12.22;57.07;99834.75;4492725;31;33863;-70
2022/04/16 05:06:31;;;;;;;;;;;;;;;12.95;54.97;99832.44;4495433;31;33635;-66
2022/04/16 05:09:00;;;;;;;;;;;;;;;12.98;54.33;99832.19;4487436;31;32846;-66
2022/04/16 05:11:30;;;;;;;;;;;;;;;12.43;55.95;99828.66;4490350;31;33489;-67
2022/04/16 05:14:00;;;;;;;;;;;;;;;12.00;56.97;99832.94;4497610;31;34102;-67
2022/04/16 05:16:29;;;;;;;;;;;;;;;12.33;56.02;99829.41;4488937;31;33379;-66
2022/04/16 05:18:58;;;;;;;;;;;;;;;12.50;55.76;99844.12;4489842;31;34828;-68
2022/04/16 05:21:26;;;;;;;;;;;;;;;12.66;55.63;99838.38;4485774;31;35505;-70
2022/04/16 05:23:55;;;;;;;;;;;;;;;12.19;56.30;99842.22;4490884;31;34101;-66
2022/04/16 05:26:24;;;;;;;;;;;;;;;12.30;56.15;99844.91;4487133;31;33473;-66
2022/04/16 05:28:56;;;;;;;;;;;;;;;12.51;55.68;99853.03;4468937;31;33228;-66
2022/04/16 05:31:29;;;;;;;;;;;;;;;13.09;53.97;99850.06;4481924;31;35551;-66
2022/04/16 05:34:18;;;;;;;;;;;;;;;12.76;55.21;99850.06;4484052;31;33888;-66
2022/04/16 05:36:48;;;;;;;;;;;;;;;13.04;53.43;99855.84;4481625;31;34949;-66
2022/04/16 05:39:17;;;;;;;;;;;;;;;13.57;51.86;99861.25;4490005;31;34969;-65
2022/04/16 05:41:45;;;;;;;;;;;;;;;12.89;53.53;99857.97;4485532;31;34171;-67
2022/04/16 05:44:14;;;;;;;;;;;;;;;12.52;54.82;99852.06;4484651;31;33995;-67
2022/04/16 05:46:42;;;;;;;;;;;;;;;12.04;56.33;99858.56;4489073;31;33608;-70
2022/04/16 05:49:09;;;;;;;;;;;;;;;12.98;53.88;99859.03;4489149;31;34304;-68
2022/04/16 05:51:38;;;;;;;;;;;;;;;13.93;50.98;99851.84;4482951;31;35414;-70
2022/04/16 05:54:06;;;;;;;;;;;;;;;13.46;51.34;99861.31;4482520;31;34467;-68
2022/04/16 05:56:35;;;;;;;;;;;;;;;13.50;51.64;99855.53;4485692;31;32350;-68
2022/04/16 05:59:03;;;;;;;;;;;;;;;12.86;52.85;99868.09;4486712;31;34314;-69
2022/04/16 06:01:31;;;;;;;;;;;;;;;12.89;53.28;99865.16;4497245;31;34223;-66
2022/04/16 06:03:59;;;;;;;;;;;;;;;13.38;51.97;99861.94;4488912;31;34878;-67
2022/04/16 06:06:28;;;;;;;;;;;;;;;12.58;53.95;99867.66;4482570;31;32957;-67
2022/04/16 06:08:56;;;;;;;;;;;;;;;12.94;53.33;99865.66;4491608;31;34099;-68
2022/04/16 06:11:28;;;;;;;;;;;;;;;11.86;55.79;99868.91;4486236;31;34307;-69
2022/04/16 06:13:56;;;;;;;;;;;;;;;12.28;55.20;99866.47;4487107;31;34166;-66
2022/04/16 06:16:24;;;;;;;;;;;;;;;11.97;56.05;99875.25;4480776;31;32122;-68
2022/04/16 06:18:54;;;;;;;;;;;;;;;11.99;55.96;99867.94;4483307;31;34091;-67
2022/04/16 06:21:29;;;;;;;;;;;;;;;12.00;55.48;99867.81;4490213;31;34181;-68
2022/04/16 06:23:58;;;;;;;;;;;;;;;11.99;55.64;99871.47;4485562;31;34691;-66
2022/04/16 06:26:26;;;;;;;;;;;;;;;11.86;55.87;99868.91;4487810;31;32710;-68
2022/04/16 06:28:54;;;;;;;;;;;;;;;12.25;54.91;99871.25;4482755;31;34793;-67
2022/04/16 06:31:23;;;;;;;;;;;;;;;12.12;55.98;99871.37;4483610;31;35853;-69
2022/04/16 06:33:52;;;;;;;;;;;;;;;12.45;54.37;99877.69;4485719;31;33014;-66
2022/04/16 06:36:21;;;;;;;;;;;;;;;12.57;53.66;99884.75;4483319;31;34388;-66
2022/04/16 06:38:49;;;;;;;;;;;;;;;12.64;54.10;99891.34;4493820;31;35246;-67
2022/04/16 06:41:17;;;;;;;;;;;;;;;12.62;53.81;99889.78;4491795;31;35521;-67
2022/04/16 06:43:46;;;;;;;;;;;;;;;12.02;55.12;99886.47;4487268;31;33745;-69
2022/04/16 06:46:14;;;;;;;;;;;;;;;12.21;54.79;99889.41;4483420;31;34632;-68
2022/04/16 06:48:42;;;;;;;;;;;;;;;13.06;52.52;99891.47;4485406;31;35362;-68
2022/04/16 06:51:10;;;;;;;;;;;;;;;12.82;53.21;99897.06;4486763;31;34123;-68
2022/04/16 06:53:39;;;;;;;;;;;;;;;13.24;51.98;99898.06;4489800;31;32830;-67
2022/04/16 06:56:08;;;;;;;;;;;;;;;13.05;52.80;99900.53;4489515;31;33538;-66
2022/04/16 06:58:38;;;;;;;;;;;;;;;13.15;52.32;99896.09;4489007;31;34665;-67
2022/04/16 07:01:06;;;;;;;;;;;;;;;13.15;52.38;99898.78;4497760;31;33123;-69
2022/04/16 07:03:35;;;;;;;;;;;;;;;14.08;50.07;99908.84;4491706;31;33173;-71
2022/04/16 07:06:04;;;;;;;;;;;;;;;14.18;50.07;99904.38;4490505;31;34543;-68
2022/04/16 07:08:36;;;;;;;;;;;;;;;14.23;49.52;99909.37;4483131;31;32817;-69
2022/04/16 07:11:05;;;;;;;;;;;;;;;13.62;50.25;99910.13;4487549;31;35209;-68
2022/04/16 07:13:33;;;;;;;;;;;;;;;14.05;49.33;99911.81;4493631;31;34296;-68
2022/04/16 07:16:03;;;;;;;;;;;;;;;13.84;49.42;99911.84;4488328;31;33403;-69
2022/04/16 07:18:33;;;;;;;;;;;;;;;14.21;48.60;99912.19;4486113;31;34228;-68
2022/04/16 07:21:01;;;;;;;;;;;;;;;13.86;49.52;99912.53;4496123;31;35552;-68
2022/04/16 07:23:30;;;;;;;;;;;;;;;14.02;49.33;99909.37;4486930;31;35268;-67
2022/04/16 07:25:59;;;;;;;;;;;;;;;14.49;48.48;99908.91;4492081;31;33505;-68
2022/04/16 07:28:27;;;;;;;;;;;;;;;14.84;47.84;99911.19;4487212;31;33979;-69
2022/04/16 07:30:56;;;;;;;;;;;;;;;14.58;48.36;99906.28;4496614;31;35404;-68
2022/04/16 07:33:27;;;;;;;;;;;;;;;15.22;46.95;99913.09;4477579;31;34284;-65
2022/04/16 07:35:56;;;;;;;;;;;;;;;15.38;46.50;99912.56;4490151;31;33733;-66
2022/04/16 07:38:24;;;;;;;;;;;;;;;14.94;47.08;99914.75;4491023;31;34819;-67
2022/04/16 07:40:54;;;;;;;;;;;;;;;15.02;46.55;99911.34;4482565;32;34376;-67
2022/04/16 07:43:22;;;;;;;;;;;;;;;14.94;46.70;99924.69;4415572;32;1708776;-66
2022/04/16 07:45:52;;;;;;;;;;;;;;;14.99;46.75;99920.59;4481620;32;33395;-67
2022/04/16 07:48:20;;;;;;;;;;;;;;;15.43;45.58;99923.75;4453364;32;32708;-69
2022/04/16 07:50:50;;;;;;;;;;;;;;;15.14;46.29;99921.88;4458811;32;33980;-68
2022/04/16 07:53:19;;;;;;;;;;;;;;;15.37;45.30;99922.47;4452937;32;33853;-69
2022/04/16 07:55:53;;;;;;;;;;;;;;;15.99;43.90;99924.91;4463614;32;32151;-69
2022/04/16 07:58:21;;;;;;;;;;;;;;;15.81;44.59;99927.47;4460682;32;33023;-69
2022/04/16 08:00:49;;;;;;;;;;;;;;;16.25;43.30;99925.13;4451434;32;33385;-68
2022/04/16 08:03:18;;;;;;;;;;;;;;;15.91;44.26;99927.44;4458090;32;34336;-68
2022/04/16 08:05:46;;;;;;;;;;;;;;;15.21;45.23;99938.34;4451175;32;33407;-68
2022/04/16 08:08:14;;;;;;;;;;;;;;;15.29;44.63;99932.28;4464253;32;32605;-68
2022/04/16 08:10:43;;;;;;;;;;;;;;;15.46;44.33;99934.25;4451801;32;34325;-67
2022/04/16 08:13:11;;;;;;;;;;;;;;;15.20;45.23;99931.25;4450607;32;32955;-68
2022/04/16 08:15:39;;;;;;;;;;;;;;;15.07;45.50;99936.91;4451645;32;32132;-66
2022/04/16 08:18:08;;;;;;;;;;;;;;;15.41;44.93;99936.53;4461403;32;35231;-67
2022/04/16 08:20:36;;;;;;;;;;;;;;;15.27;45.22;99931.53;4456374;32;34047;-68
2022/04/16 08:23:06;;;;;;;;;;;;;;;15.05;45.07;99940.72;4463286;32;34321;-67
2022/04/16 08:28:04;;;;;;;;;;;;;;;16.10;43.00;99943.62;4464428;32;33083;-70
2022/04/16 08:30:32;;;;;;;;;;;;;;;15.80;43.64;99948.22;4454870;32;34170;-69
2022/04/16 08:33:01;;;;;;;;;;;;;;;16.15;42.84;99941.34;4456148;32;34004;-66
2022/04/16 08:35:31;;;;;;;;;;;;;;;15.32;44.25;99951.72;4458728;32;32341;-68
2022/04/16 08:38:05;;;;;;;;;;;;;;;15.59;43.70;99952.84;4455864;32;32889;-67
2022/04/16 08:40:39;;;;;;;;;;;;;;;15.08;44.91;99946.69;4457896;32;34262;-69
2022/04/16 08:43:18;;;;;;;;;;;;;;;15.41;43.93;99947.34;4468215;32;35232;-67
2022/04/16 08:45:50;;;;;;;;;;;;;;;15.63;43.70;99951.56;4453264;32;31985;-66
2022/04/16 08:48:20;;;;;;;;;;;;;;;15.03;45.08;99953.50;4465449;32;33837;-70
2022/04/16 08:50:54;;;;;;;;;;;;;;;15.00;45.65;99962.72;4460068;32;34040;-68
2022/04/16 08:53:26;;;;;;;;;;;;;;;15.03;45.26;99956.22;4464193;32;33039;-68
2022/04/16 08:55:59;;;;;;;;;;;;;;;14.86;44.92;99949.59;4466804;32;33429;-68
2022/04/16 08:58:32;;;;;;;;;;;;;;;14.70;45.81;99951.97;4457503;32;34212;-67
2022/04/16 09:01:10;;;;;;;;;;;;;;;14.45;46.70;99962.19;4462449;32;33071;-67
2022/04/16 09:03:44;;;;;;;;;;;;;;;15.60;44.10;99958.13;4469141;32;33129;-67
2022/04/16 09:06:23;;;;;;;;;;;;;;;15.16;45.09;99961.34;4463904;32;33569;-67
2022/04/16 09:09:09;;;;;;;;;;;;;;;15.01;45.13;99964.41;4455473;32;32775;-66
2022/04/16 09:11:43;;;;;;;;;;;;;;;14.00;47.31;99965.19;4464424;32;34224;-70
2022/04/16 09:14:18;;;;;;;;;;;;;;;14.32;46.26;99959.72;4460063;32;34230;-68
2022/04/16 09:16:49;;;;;;;;;;;;;;;14.33;46.37;99971.34;4462169;32;33096;-69
2022/04/16 09:19:21;;;;;;;;;;;;;;;14.23;46.89;99973.97;4455768;32;33283;-68
2022/04/16 09:21:53;;;;;;;;;;;;;;;14.12;47.03;99969.50;4454358;32;33310;-65
2022/04/16 09:24:26;;;;;;;;;;;;;;;14.57;46.23;99969.22;4459932;32;34251;-65
2022/04/16 09:27:00;;;;;;;;;;;;;;;14.80;45.36;99971.72;4459374;32;33127;-67
2022/04/16 09:29:32;;;;;;;;;;;;;;;14.72;45.61;99977.78;4453281;32;34149;-66
2022/04/16 09:32:10;;;;;;;;;;;;;;;14.18;46.44;99978.87;4460518;32;35430;-70
2022/04/16 09:34:49;;;;;;;;;;;;;;;14.36;46.20;99976.47;4462807;32;32865;-70
2022/04/16 09:37:27;;;;;;;;;;;;;;;13.82;47.56;99972.13;4463277;32;32183;-66
2022/04/16 09:40:08;;;;;;;;;;;;;;;14.41;47.01;99976.91;4453945;32;34473;-65
2022/04/16 09:42:52;;;;;;;;;;;;;;;14.58;46.14;99975.47;4453008;32;34071;-67
2022/04/16 09:45:35;;;;;;;;;;;;;;;15.18;45.06;99975.53;4464290;32;32941;-70
2022/04/16 09:48:15;;;;;;;;;;;;;;;15.13;45.27;99971.41;4495602;31;33922;-65
2022/04/16 09:50:56;;;;;;;;;;;;;;;14.90;45.63;99969.94;4489770;31;34016;-67
2022/04/16 09:53:31;;;;;;;;;;;;;;;15.31;45.06;99954.53;4472193;31;34944;-66
2022/04/16 09:56:12;;;;;;;;;;;;;;;15.88;43.92;99958.28;4488711;31;33502;-67
2022/04/16 09:58:52;;;;;;;;;;;;;;;15.60;43.86;99965.34;4495133;31;33107;-65
2022/04/16 10:01:30;;;;;;;;;;;;;;;15.38;44.40;99963.78;4484730;31;34089;-65
2022/04/16 10:04:14;;;;;;;;;;;;;;;16.23;43.01;99964.91;4477720;31;33073;-70
2022/04/16 10:06:57;;;;;;;;;;;;;;;16.80;41.14;99964.91;4494970;31;33167;-68
2022/04/16 10:09:41;;;;;;;;;;;;;;;15.89;42.73;99967.22;4484116;31;33557;-67
2022/04/16 10:15:16;;;;;;;;;;;;;;;16.26;41.83;99970.87;4474982;32;34353;-67
2022/04/16 10:18:02;;;;;;;;;;;;;;;16.23;42.71;99967.59;4477861;31;34211;-68
2022/04/16 10:21:01;;;;;;;;;;;;;;;15.82;41.81;99962.41;4471995;32;32216;-69
2022/04/16 10:23:40;;;;;;;;;;;;;;;16.12;41.15;99957.00;4491424;31;33230;-67
2022/04/16 10:26:23;;;;;;;;;;;;;;;16.29;41.04;99954.38;4487248;31;33442;-68
2022/04/16 10:29:06;;;;;;;;;;;;;;;15.79;42.17;99951.91;4470894;31;33014;-68
2022/04/16 10:31:50;;;;;;;;;;;;;;;16.42;40.78;99953.19;4484315;32;32027;-68
2022/04/16 10:34:34;;;;;;;;;;;;;;;15.59;42.25;99955.56;4484184;31;34178;-68
2022/04/16 10:37:19;;;;;;;;;;;;;;;16.04;41.42;99950.44;4484580;32;34261;-67
2022/04/16 10:39:57;;;;;;;;;;;;;;;15.92;41.27;99959.72;4483791;32;34848;-68
2022/04/16 10:42:37;;;;;;;;;;;;;;;15.64;42.28;99950.59;4484593;32;33863;-70
2022/04/16 10:45:37;;;;;;;;;;;;;;;15.87;41.61;99953.88;4483566;32;34299;-69
2022/04/16 10:48:12;;;;;;;;;;;;;;;15.75;41.40;99950.47;4485623;31;33647;-68
2022/04/16 10:50:48;;;;;;;;;;;;;;;15.27;42.23;99950.41;4480506;31;32692;-69
2022/04/16 10:53:40;;;;;;;;;;;;;;;15.57;41.98;99958.41;4484452;32;32387;-68
2022/04/16 10:56:18;;;;;;;;;;;;;;;15.47;41.46;99949.44;4484298;31;32433;-67
2022/04/16 10:59:04;;;;;;;;;;;;;;;15.77;41.62;99951.19;4483824;31;35384;-67
2022/04/16 11:01:55;;;;;;;;;;;;;;;15.56;41.74;99959.38;4497845;31;33576;-67
2022/04/16 11:04:34;;;;;;;;;;;;;;;15.80;40.86;99955.47;4499608;31;33479;-67
2022/04/16 11:07:17;;;;;;;;;;;;;;;15.82;40.58;99957.00;4493894;31;32861;-67
2022/04/16 11:09:57;;;;;;;;;;;;;;;15.49;41.56;99946.63;4478276;31;34265;-67
2022/04/16 11:12:29;;;;;;;;;;;;;;;15.84;41.12;99954.16;4499293;31;33896;-66
2022/04/16 11:15:09;;;;;;;;;;;;;;;15.86;40.26;99954.87;4487548;31;33346;-67
2022/04/16 11:17:54;;;;;;;;;;;;;;;15.61;40.86;99964.38;4496940;31;34385;-70
2022/04/16 11:20:43;;;;;;;;;;;;;;;15.51;40.95;99960.81;4486860;31;35368;-68
2022/04/16 11:23:22;;;;;;;;;;;;;;;15.51;40.94;99960.81;4501998;31;32971;-67
2022/04/16 11:34:38;;;;;;;;;;;;;;;14.39;44.00;99962.72;4488284;31;33051;-67
2022/04/16 11:37:32;;;;;;;;;;;;;;;14.95;42.69;99964.97;4488635;31;32461;-67
2022/04/16 11:40:09;;;;;;;;;;;;;;;14.89;42.36;99957.41;4473698;31;33685;-71
2022/04/16 11:42:50;;;;;;;;;;;;;;;15.00;42.37;99965.41;4488022;31;34329;-66
2022/04/16 11:45:28;;;;;;;;;;;;;;;15.44;43.15;99959.66;4493822;31;34196;-66
2022/04/16 11:47:59;;;;;;;;;;;;;;;15.54;43.55;99961.41;4486947;31;32508;-70
2022/04/16 11:50:44;;;;;;;;;;;;;;;16.12;43.65;99965.09;4488648;31;33981;-66
2022/04/16 11:53:14;;;;;;;;;;;;;;;15.78;44.14;99970.94;4482546;31;34377;-67
2022/04/16 11:55:48;;;;;;;;;;;;;;;16.49;43.51;99970.50;4490871;31;33336;-67
2022/04/16 11:58:29;;;;;;;;;;;;;;;15.91;44.82;99968.78;4489575;31;33519;-66
2022/04/16 12:01:10;;;;;;;;;;;;;;;15.25;44.85;99974.84;4492749;31;32984;-68
2022/04/16 12:03:42;;;;;;;;;;;;;;;15.18;45.23;99972.81;4495618;31;34188;-66
2022/04/16 12:06:15;;;;;;;;;;;;;;;15.59;43.91;99966.34;4475552;31;32295;-68
2022/04/16 12:08:46;;;;;;;;;;;;;;;15.73;44.11;99962.41;4480996;31;33228;-68
2022/04/16 12:11:18;;;;;;;;;;;;;;;15.53;43.52;99951.56;4479562;31;33718;-67
2022/04/16 12:13:54;;;;;;;;;;;;;;;15.84;43.88;99946.06;4485944;31;33170;-66
2022/04/16 12:16:23;;;;;;;;;;;;;;;15.16;43.65;99948.72;4486111;31;34463;-67
2022/04/16 12:18:53;;;;;;;;;;;;;;;15.32;42.76;99932.00;4469816;32;33531;-68
2022/04/16 12:21:24;;;;;;;;;;;;;;;15.33;43.78;99939.06;4494339;31;35331;-66
2022/04/16 12:23:52;;;;;;;;;;;;;;;15.21;42.18;99935.66;4485219;31;34234;-67
2022/04/16 12:26:21;;;;;;;;;;;;;;;15.65;42.21;99933.41;4474602;32;34404;-70
2022/04/16 12:28:51;;;;;;;;;;;;;;;15.52;42.96;99936.38;4486824;31;34526;-69
2022/04/16 12:31:26;;;;;;;;;;;;;;;15.82;42.29;99918.38;4486063;31;35464;-67
2022/04/16 12:33:56;;;;;;;;;;;;;;;16.02;41.46;99924.59;4493271;31;35511;-66
2022/04/16 12:36:24;;;;;;;;;;;;;;;16.83;40.23;99919.50;4482752;31;32620;-67
2022/04/16 12:38:56;;;;;;;;;;;;;;;16.95;39.52;99910.19;4495529;31;32179;-67
2022/04/16 12:41:26;;;;;;;;;;;;;;;17.15;39.08;99910.06;4492406;31;32867;-67
2022/04/16 12:43:53;;;;;;;;;;;;;;;17.12;38.84;99919.31;4483962;31;34563;-70
2022/04/16 12:46:26;;;;;;;;;;;;;;;17.60;37.45;99917.25;4469767;32;32918;-69
2022/04/16 12:48:58;;;;;;;;;;;;;;;17.33;37.87;99921.72;4494188;31;33673;-67
2022/04/16 12:51:27;;;;;;;;;;;;;;;17.03;37.28;99920.22;4489744;31;33075;-67
2022/04/16 12:53:55;;;;;;;;;;;;;;;17.14;37.06;99913.75;4470850;32;32704;-68
2022/04/16 12:56:23;;;;;;;;;;;;;;;17.17;37.01;99917.03;4483739;31;34658;-67
2022/04/16 12:58:51;;;;;;;;;;;;;;;18.02;36.88;99914.75;4484382;31;33445;-68
2022/04/16 13:01:20;;;;;;;;;;;;;;;17.69;35.15;99906.34;4486466;31;34033;-68
2022/04/16 13:03:51;;;;;;;;;;;;;;;17.25;36.30;99915.41;4467416;31;32161;-66
2022/04/16 13:06:22;;;;;;;;;;;;;;;17.44;35.31;99910.69;4483132;31;34869;-68
2022/04/16 13:08:54;;;;;;;;;;;;;;;17.37;35.77;99908.75;4467494;32;32843;-65
2022/04/16 13:11:23;;;;;;;;;;;;;;;17.66;36.11;99905.81;4482142;31;32684;-66
2022/04/16 13:13:50;;;;;;;;;;;;;;;17.61;35.50;99900.84;4487298;31;33158;-68
2022/04/16 13:16:20;;;;;;;;;;;;;;;17.34;35.73;99906.34;4484494;31;32899;-67
2022/04/16 13:18:49;;;;;;;;;;;;;;;16.89;35.79;99902.66;4493584;31;33543;-65
2022/04/16 13:21:18;;;;;;;;;;;;;;;16.84;35.61;99902.25;4486827;31;34131;-66
2022/04/16 13:23:47;;;;;;;;;;;;;;;17.63;34.68;99909.66;4491915;31;33392;-65
2022/04/16 13:26:17;;;;;;;;;;;;;;;17.05;35.45;99910.13;4470581;32;32242;-67
2022/04/16 13:28:46;;;;;;;;;;;;;;;16.60;37.07;99908.19;4488061;31;32293;-66
2022/04/16 13:31:15;;;;;;;;;;;;;;;16.70;36.02;99903.59;4479989;31;32588;-66
2022/04/16 13:33:44;;;;;;;;;;;;;;;16.51;36.50;99914.50;4480553;32;33245;-67
2022/04/16 13:36:16;;;;;;;;;;;;;;;16.48;36.71;99907.53;4479803;32;34090;-65